sensor_id;sensor_type;location;lat;lon;timestamp;pressure;altitude;pressure_sealevel;temperature;humidity
40794;BME280;26502;51.886;15.604;2022-08-02T00:03:20;100864.88;;;16.99;68.14
40794;BME280;26502;51.886;15.604;2022-08-02T00:08:27;100871.39;;;16.98;68.13
40794;BME280;26502;51.886;15.604;2022-08-02T00:13:34;100871.42;;;16.90;68.35
40794;BME280;26502;51.886;15.604;2022-08-02T00:18:41;100875.89;;;16.81;68.44
40794;BME280;26502;51.886;15.604;2022-08-02T00:23:48;100876.20;;;16.79;68.58
40794;BME280;26502;51.886;15.604;2022-08-02T00:28:55;100879.94;;;16.89;68.62
40794;BME280;26502;51.886;15.604;2022-08-02T00:34:04;100878.96;;;16.81;68.47
40794;BME280;26502;51.886;15.604;2022-08-02T00:39:12;100876.27;;;16.71;68.56
40794;BME280;26502;51.886;15.604;2022-08-02T00:44:20;100881.45;;;16.74;68.64
40794;BME280;26502;51.886;15.604;2022-08-02T00:49:27;100880.11;;;16.60;68.60
40794;BME280;26502;51.886;15.604;2022-08-02T00:54:34;100878.77;;;16.45;68.67
40794;BME280;26502;51.886;15.604;2022-08-02T00:59:41;100880.53;;;16.22;68.80
40794;BME280;26502;51.886;15.604;2022-08-02T01:04:48;100889.93;;;16.06;69.01
40794;BME280;26502;51.886;15.604;2022-08-02T01:09:56;100886.72;;;16.02;69.27
40794;BME280;26502;51.886;15.604;2022-08-02T01:15:07;100889.06;;;16.02;69.30
40794;BME280;26502;51.886;15.604;2022-08-02T01:20:24;100884.02;;;16.06;69.41
40794;BME280;26502;51.886;15.604;2022-08-02T01:25:55;100875.52;;;16.24;69.53
40794;BME280;26502;51.886;15.604;2022-08-02T01:31:15;100868.79;;;16.33;69.16
40794;BME280;26502;51.886;15.604;2022-08-02T01:36:27;100863.91;;;16.31;69.08
40794;BME280;26502;51.886;15.604;2022-08-02T01:41:39;100863.95;;;16.23;68.94
40794;BME280;26502;51.886;15.604;2022-08-02T01:46:48;100873.63;;;15.67;68.98
40794;BME280;26502;51.886;15.604;2022-08-02T01:51:57;100870.16;;;15.58;69.89
40794;BME280;26502;51.886;15.604;2022-08-02T01:57:25;100866.95;;;15.79;70.20
40794;BME280;26502;51.886;15.604;2022-08-02T02:02:35;100865.42;;;15.98;70.04
40794;BME280;26502;51.886;15.604;2022-08-02T02:07:44;100861.77;;;16.03;69.90
40794;BME280;26502;51.886;15.604;2022-08-02T02:12:55;100861.42;;;15.96;69.56
40794;BME280;26502;51.886;15.604;2022-08-02T02:18:04;100869.61;;;15.68;69.61
40794;BME280;26502;51.886;15.604;2022-08-02T02:23:12;100879.30;;;15.42;69.75
40794;BME280;26502;51.886;15.604;2022-08-02T02:28:22;100881.73;;;15.26;70.41
40794;BME280;26502;51.886;15.604;2022-08-02T02:33:36;100893.58;;;15.29;70.55
40794;BME280;26502;51.886;15.604;2022-08-02T02:38:46;100889.94;;;15.31;70.58
40794;BME280;26502;51.886;15.604;2022-08-02T02:43:57;100895.27;;;15.42;70.97
40794;BME280;26502;51.886;15.604;2022-08-02T02:49:06;100898.13;;;15.71;71.10
40794;BME280;26502;51.886;15.604;2022-08-02T02:54:15;100893.20;;;15.95;70.98
40794;BME280;26502;51.886;15.604;2022-08-02T02:59:24;100895.59;;;16.04;70.69
40794;BME280;26502;51.886;15.604;2022-08-02T03:04:32;100898.98;;;16.01;70.79
40794;BME280;26502;51.886;15.604;2022-08-02T03:09:39;100895.91;;;16.11;70.88
40794;BME280;26502;51.886;15.604;2022-08-02T03:14:47;100895.37;;;16.19;70.96
40794;BME280;26502;51.886;15.604;2022-08-02T03:19:54;100899.36;;;16.28;70.98
40794;BME280;26502;51.886;15.604;2022-08-02T03:25:01;100911.36;;;16.35;70.88
40794;BME280;26502;51.886;15.604;2022-08-02T03:30:10;100900.52;;;16.33;70.81
40794;BME280;26502;51.886;15.604;2022-08-02T03:35:18;100897.23;;;16.34;70.73
40794;BME280;26502;51.886;15.604;2022-08-02T03:40:24;100911.02;;;16.18;70.57
40794;BME280;26502;51.886;15.604;2022-08-02T03:45:33;100918.59;;;15.92;70.82
40794;BME280;26502;51.886;15.604;2022-08-02T03:50:42;100935.99;;;15.69;71.00
40794;BME280;26502;51.886;15.604;2022-08-02T03:55:51;100942.63;;;15.61;71.62
40794;BME280;26502;51.886;15.604;2022-08-02T04:00:59;100952.00;;;15.83;72.02
40794;BME280;26502;51.886;15.604;2022-08-02T04:06:07;100959.20;;;16.00;71.98
40794;BME280;26502;51.886;15.604;2022-08-02T04:11:14;100968.61;;;16.09;72.02
40794;BME280;26502;51.886;15.604;2022-08-02T04:16:41;100972.30;;;16.24;72.10
40794;BME280;26502;51.886;15.604;2022-08-02T04:21:52;100978.35;;;16.43;72.14
40794;BME280;26502;51.886;15.604;2022-08-02T04:27:02;100985.48;;;16.40;72.12
40794;BME280;26502;51.886;15.604;2022-08-02T04:32:11;100982.31;;;16.56;72.31
40794;BME280;26502;51.886;15.604;2022-08-02T04:37:19;100982.91;;;16.75;72.17
40794;BME280;26502;51.886;15.604;2022-08-02T04:42:27;100983.52;;;16.98;72.09
40794;BME280;26502;51.886;15.604;2022-08-02T04:47:35;100997.47;;;16.99;71.67
40794;BME280;26502;51.886;15.604;2022-08-02T04:52:43;101004.44;;;16.85;72.34
40794;BME280;26502;51.886;15.604;2022-08-02T04:57:50;101000.41;;;17.04;72.52
40794;BME280;26502;51.886;15.604;2022-08-02T05:03:03;100994.73;;;17.29;72.47
40794;BME280;26502;51.886;15.604;2022-08-02T05:08:10;100994.15;;;17.52;72.41
40794;BME280;26502;51.886;15.604;2022-08-02T05:13:17;100986.19;;;17.69;72.24
40794;BME280;26502;51.886;15.604;2022-08-02T05:18:24;100979.98;;;17.94;72.01
40794;BME280;26502;51.886;15.604;2022-08-02T05:23:32;100984.02;;;18.16;71.95
40794;BME280;26502;51.886;15.604;2022-08-02T05:28:40;100988.34;;;18.46;71.76
40794;BME280;26502;51.886;15.604;2022-08-02T05:33:47;101001.29;;;18.79;71.37
40794;BME280;26502;51.886;15.604;2022-08-02T05:38:54;100999.27;;;19.06;71.09
40794;BME280;26502;51.886;15.604;2022-08-02T05:44:02;101004.88;;;19.40;70.82
40794;BME280;26502;51.886;15.604;2022-08-02T05:49:09;101006.16;;;19.59;69.89
40794;BME280;26502;51.886;15.604;2022-08-02T05:54:21;101008.50;;;19.81;69.91
40794;BME280;26502;51.886;15.604;2022-08-02T05:59:34;101014.64;;;20.01;69.41
40794;BME280;26502;51.886;15.604;2022-08-02T06:04:48;101014.87;;;20.19;68.82
40794;BME280;26502;51.886;15.604;2022-08-02T06:09:58;101018.81;;;20.35;68.45
40794;BME280;26502;51.886;15.604;2022-08-02T06:15:08;101023.64;;;20.38;68.32
40794;BME280;26502;51.886;15.604;2022-08-02T06:20:20;101027.29;;;20.54;67.61
40794;BME280;26502;51.886;15.604;2022-08-02T06:25:30;101031.91;;;20.65;66.88
40794;BME280;26502;51.886;15.604;2022-08-02T06:30:37;101033.08;;;20.67;66.48
40794;BME280;26502;51.886;15.604;2022-08-02T06:35:48;101030.20;;;20.66;66.17
40794;BME280;26502;51.886;15.604;2022-08-02T06:41:02;101028.27;;;20.66;65.65
40794;BME280;26502;51.886;15.604;2022-08-02T06:46:11;101024.32;;;20.60;65.07
40794;BME280;26502;51.886;15.604;2022-08-02T06:51:18;101029.32;;;20.67;64.78
40794;BME280;26502;51.886;15.604;2022-08-02T06:56:26;101029.84;;;20.77;64.33
40794;BME280;26502;51.886;15.604;2022-08-02T07:01:33;101027.36;;;20.97;64.11
40794;BME280;26502;51.886;15.604;2022-08-02T07:06:40;101029.51;;;21.31;63.56
40794;BME280;26502;51.886;15.604;2022-08-02T07:11:47;101032.28;;;21.58;62.97
40794;BME280;26502;51.886;15.604;2022-08-02T07:16:54;101023.71;;;21.78;62.08
40794;BME280;26502;51.886;15.604;2022-08-02T07:22:04;101023.91;;;21.93;61.62
40794;BME280;26502;51.886;15.604;2022-08-02T07:27:11;101033.38;;;22.06;61.33
40794;BME280;26502;51.886;15.604;2022-08-02T07:32:20;101029.20;;;22.40;60.30
40794;BME280;26502;51.886;15.604;2022-08-02T07:37:29;101034.33;;;22.42;59.87
40794;BME280;26502;51.886;15.604;2022-08-02T07:42:37;101033.05;;;22.30;59.39
40794;BME280;26502;51.886;15.604;2022-08-02T07:47:45;101029.92;;;22.57;59.12
40794;BME280;26502;51.886;15.604;2022-08-02T07:52:52;101024.45;;;22.79;58.40
40794;BME280;26502;51.886;15.604;2022-08-02T07:57:59;101020.11;;;22.97;58.20
40794;BME280;26502;51.886;15.604;2022-08-02T08:03:06;101024.06;;;22.93;57.72
40794;BME280;26502;51.886;15.604;2022-08-02T08:08:14;101025.52;;;23.25;57.08
40794;BME280;26502;51.886;15.604;2022-08-02T08:13:21;101020.57;;;23.39;56.36
40794;BME280;26502;51.886;15.604;2022-08-02T08:18:28;101023.02;;;23.63;55.69
40794;BME280;26502;51.886;15.604;2022-08-02T08:23:35;101017.93;;;23.54;54.59
40794;BME280;26502;51.886;15.604;2022-08-02T08:28:43;101019.44;;;23.71;54.63
40794;BME280;26502;51.886;15.604;2022-08-02T08:33:50;101015.37;;;23.85;53.89
40794;BME280;26502;51.886;15.604;2022-08-02T08:38:57;101013.38;;;23.81;53.32
40794;BME280;26502;51.886;15.604;2022-08-02T08:44:05;101014.65;;;24.03;53.23
40794;BME280;26502;51.886;15.604;2022-08-02T08:49:19;101012.11;;;24.46;53.01
40794;BME280;26502;51.886;15.604;2022-08-02T08:54:30;101012.28;;;24.43;51.91
40794;BME280;26502;51.886;15.604;2022-08-02T08:59:41;101012.75;;;24.47;51.50
40794;BME280;26502;51.886;15.604;2022-08-02T09:04:49;101012.35;;;24.58;50.95
40794;BME280;26502;51.886;15.604;2022-08-02T09:09:56;101013.95;;;24.11;49.71
40794;BME280;26502;51.886;15.604;2022-08-02T09:15:06;101014.73;;;24.21;49.59
40794;BME280;26502;51.886;15.604;2022-08-02T09:20:17;101014.23;;;24.49;49.69
40794;BME280;26502;51.886;15.604;2022-08-02T09:25:25;101011.10;;;25.26;49.66
40794;BME280;26502;51.886;15.604;2022-08-02T09:30:33;101007.97;;;25.65;48.85
40794;BME280;26502;51.886;15.604;2022-08-02T09:35:48;101001.20;;;26.12;48.61
40794;BME280;26502;51.886;15.604;2022-08-02T09:41:04;100998.61;;;26.57;47.74
40794;BME280;26502;51.886;15.604;2022-08-02T09:46:14;100998.50;;;26.33;46.84
40794;BME280;26502;51.886;15.604;2022-08-02T09:51:27;100995.63;;;26.21;46.93
40794;BME280;26502;51.886;15.604;2022-08-02T09:56:45;100991.62;;;26.63;46.93
40794;BME280;26502;51.886;15.604;2022-08-02T10:01:55;100994.20;;;26.50;46.18
40794;BME280;26502;51.886;15.604;2022-08-02T10:07:03;100994.17;;;25.97;45.28
40794;BME280;26502;51.886;15.604;2022-08-02T10:12:09;100992.61;;;25.88;45.46
40794;BME280;26502;51.886;15.604;2022-08-02T10:17:17;100986.64;;;25.96;45.36
40794;BME280;26502;51.886;15.604;2022-08-02T10:22:28;100973.89;;;26.49;45.45
40794;BME280;26502;51.886;15.604;2022-08-02T10:27:36;100973.42;;;27.16;44.75
40794;BME280;26502;51.886;15.604;2022-08-02T10:32:45;100972.86;;;27.33;43.87
40794;BME280;26502;51.886;15.604;2022-08-02T10:37:55;100967.79;;;26.94;43.58
40794;BME280;26502;51.886;15.604;2022-08-02T10:43:05;100964.98;;;27.43;43.63
40794;BME280;26502;51.886;15.604;2022-08-02T10:48:13;100961.02;;;27.62;43.00
40794;BME280;26502;51.886;15.604;2022-08-02T10:53:30;100954.33;;;27.76;41.33
40794;BME280;26502;51.886;15.604;2022-08-02T10:58:40;100945.55;;;27.89;40.97
40794;BME280;26502;51.886;15.604;2022-08-02T11:03:58;100942.00;;;28.06;40.35
40794;BME280;26502;51.886;15.604;2022-08-02T11:09:28;100947.67;;;27.92;39.33
40794;BME280;26502;51.886;15.604;2022-08-02T11:14:39;100940.45;;;27.78;40.00
40794;BME280;26502;51.886;15.604;2022-08-02T11:20:17;100938.15;;;28.21;39.96
40794;BME280;26502;51.886;15.604;2022-08-02T11:25:34;100938.02;;;28.52;40.26
40794;BME280;26502;51.886;15.604;2022-08-02T11:30:40;100930.31;;;29.22;39.62
40794;BME280;26502;51.886;15.604;2022-08-02T11:35:47;100928.21;;;29.06;38.76
40794;BME280;26502;51.886;15.604;2022-08-02T11:40:55;100924.16;;;29.40;38.75
40794;BME280;26502;51.886;15.604;2022-08-02T11:46:10;100920.59;;;29.86;37.87
40794;BME280;26502;51.886;15.604;2022-08-02T11:51:19;100920.39;;;29.70;36.83
40794;BME280;26502;51.886;15.604;2022-08-02T11:56:29;100918.98;;;29.68;35.87
40794;BME280;26502;51.886;15.604;2022-08-02T12:01:37;100923.71;;;29.43;35.65
40794;BME280;26502;51.886;15.604;2022-08-02T12:06:54;100924.38;;;29.98;35.66
40794;BME280;26502;51.886;15.604;2022-08-02T12:12:03;100927.83;;;30.05;35.32
40794;BME280;26502;51.886;15.604;2022-08-02T12:17:10;100923.48;;;30.41;35.59
40794;BME280;26502;51.886;15.604;2022-08-02T12:22:35;100924.42;;;30.76;34.98
40794;BME280;26502;51.886;15.604;2022-08-02T12:27:42;100913.34;;;30.98;34.48
40794;BME280;26502;51.886;15.604;2022-08-02T12:32:50;100910.98;;;30.80;33.73
40794;BME280;26502;51.886;15.604;2022-08-02T12:37:57;100895.79;;;30.10;33.11
40794;BME280;26502;51.886;15.604;2022-08-02T12:43:20;100900.23;;;29.38;33.92
40794;BME280;26502;51.886;15.604;2022-08-02T12:48:36;100902.76;;;28.82;33.93
40794;BME280;26502;51.886;15.604;2022-08-02T12:53:45;100903.13;;;28.68;34.91
40794;BME280;26502;51.886;15.604;2022-08-02T12:58:50;100894.24;;;29.10;35.06
40794;BME280;26502;51.886;15.604;2022-08-02T13:03:59;100886.83;;;29.67;34.41
40794;BME280;26502;51.886;15.604;2022-08-02T13:09:15;100885.63;;;30.09;34.75
40794;BME280;26502;51.886;15.604;2022-08-02T13:14:22;100884.08;;;30.46;33.92
40794;BME280;26502;51.886;15.604;2022-08-02T13:19:29;100878.35;;;30.75;32.81
40794;BME280;26502;51.886;15.604;2022-08-02T13:24:37;100882.30;;;30.54;32.20
40794;BME280;26502;51.886;15.604;2022-08-02T13:29:46;100874.09;;;30.50;31.60
40794;BME280;26502;51.886;15.604;2022-08-02T13:34:54;100866.77;;;31.00;32.04
40794;BME280;26502;51.886;15.604;2022-08-02T13:40:03;100855.08;;;31.43;31.57
40794;BME280;26502;51.886;15.604;2022-08-02T13:45:11;100849.52;;;31.53;31.46
40794;BME280;26502;51.886;15.604;2022-08-02T13:50:19;100833.84;;;31.61;30.63
40794;BME280;26502;51.886;15.604;2022-08-02T13:55:26;100825.20;;;31.71;30.47
40794;BME280;26502;51.886;15.604;2022-08-02T14:00:33;100823.45;;;31.41;30.52
40794;BME280;26502;51.886;15.604;2022-08-02T14:05:42;100825.17;;;30.94;30.36
40794;BME280;26502;51.886;15.604;2022-08-02T14:10:50;100826.98;;;30.85;30.24
40794;BME280;26502;51.886;15.604;2022-08-02T14:15:57;100827.10;;;30.99;30.20
40794;BME280;26502;51.886;15.604;2022-08-02T14:21:05;100815.23;;;31.82;30.30
40794;BME280;26502;51.886;15.604;2022-08-02T14:26:12;100815.33;;;32.40;29.87
40794;BME280;26502;51.886;15.604;2022-08-02T14:31:19;100812.04;;;32.28;29.60
40794;BME280;26502;51.886;15.604;2022-08-02T14:36:26;100812.85;;;32.33;28.98
40794;BME280;26502;51.886;15.604;2022-08-02T14:41:34;100805.99;;;32.34;28.72
40794;BME280;26502;51.886;15.604;2022-08-02T14:46:41;100799.32;;;32.42;28.44
40794;BME280;26502;51.886;15.604;2022-08-02T14:51:48;100799.07;;;32.56;28.52
40794;BME280;26502;51.886;15.604;2022-08-02T14:56:58;100797.78;;;32.48;28.32
40794;BME280;26502;51.886;15.604;2022-08-02T15:02:06;100791.52;;;32.61;27.91
40794;BME280;26502;51.886;15.604;2022-08-02T15:07:15;100783.02;;;32.41;27.33
40794;BME280;26502;51.886;15.604;2022-08-02T15:12:22;100789.44;;;32.02;27.05
40794;BME280;26502;51.886;15.604;2022-08-02T15:17:29;100790.65;;;32.12;27.20
40794;BME280;26502;51.886;15.604;2022-08-02T15:22:36;100784.06;;;32.12;26.97
40794;BME280;26502;51.886;15.604;2022-08-02T15:27:43;100775.09;;;32.23;27.13
40794;BME280;26502;51.886;15.604;2022-08-02T15:32:50;100768.33;;;32.41;27.04
40794;BME280;26502;51.886;15.604;2022-08-02T15:37:57;100769.69;;;32.94;27.18
40794;BME280;26502;51.886;15.604;2022-08-02T15:43:04;100772.08;;;33.24;26.68
40794;BME280;26502;51.886;15.604;2022-08-02T15:48:12;100763.81;;;33.39;26.47
40794;BME280;26502;51.886;15.604;2022-08-02T15:53:20;100763.04;;;33.47;26.61
40794;BME280;26502;51.886;15.604;2022-08-02T15:58:28;100770.39;;;33.07;26.23
40794;BME280;26502;51.886;15.604;2022-08-02T16:03:36;100769.30;;;32.33;25.75
40794;BME280;26502;51.886;15.604;2022-08-02T16:08:43;100765.58;;;32.08;25.83
40794;BME280;26502;51.886;15.604;2022-08-02T16:13:53;100766.90;;;31.94;26.13
40794;BME280;26502;51.886;15.604;2022-08-02T16:19:03;100765.14;;;31.77;26.22
40794;BME280;26502;51.886;15.604;2022-08-02T16:24:12;100761.49;;;31.72;26.61
40794;BME280;26502;51.886;15.604;2022-08-02T16:29:19;100762.48;;;31.59;26.61
40794;BME280;26502;51.886;15.604;2022-08-02T16:34:26;100759.61;;;31.37;26.87
40794;BME280;26502;51.886;15.604;2022-08-02T16:39:34;100759.72;;;31.24;27.30
40794;BME280;26502;51.886;15.604;2022-08-02T16:44:42;100762.42;;;30.84;27.41
40794;BME280;26502;51.886;15.604;2022-08-02T16:49:49;100767.31;;;30.61;27.81
40794;BME280;26502;51.886;15.604;2022-08-02T16:54:57;100766.39;;;30.40;28.65
40794;BME280;26502;51.886;15.604;2022-08-02T17:00:06;100759.23;;;30.38;29.14
40794;BME280;26502;51.886;15.604;2022-08-02T17:05:13;100760.67;;;30.21;29.68
40794;BME280;26502;51.886;15.604;2022-08-02T17:10:20;100758.95;;;29.98;30.40
40794;BME280;26502;51.886;15.604;2022-08-02T17:15:28;100758.25;;;29.78;30.60
40794;BME280;26502;51.886;15.604;2022-08-02T17:20:35;100755.19;;;29.56;31.41
40794;BME280;26502;51.886;15.604;2022-08-02T17:25:43;100756.69;;;29.36;32.19
40794;BME280;26502;51.886;15.604;2022-08-02T17:30:50;100761.58;;;29.21;32.46
40794;BME280;26502;51.886;15.604;2022-08-02T17:35:55;100760.48;;;29.05;32.72
40794;BME280;26502;51.886;15.604;2022-08-02T17:41:04;100755.71;;;28.85;33.23
40794;BME280;26502;51.886;15.604;2022-08-02T17:46:11;100760.81;;;28.57;33.69
40794;BME280;26502;51.886;15.604;2022-08-02T17:51:18;100767.88;;;28.24;34.32
40794;BME280;26502;51.886;15.604;2022-08-02T17:56:26;100774.00;;;28.09;34.88
40794;BME280;26502;51.886;15.604;2022-08-02T18:01:34;100767.75;;;27.79;35.44
40794;BME280;26502;51.886;15.604;2022-08-02T18:06:45;100764.53;;;27.58;35.45
40794;BME280;26502;51.886;15.604;2022-08-02T18:11:53;100765.23;;;27.36;35.82
40794;BME280;26502;51.886;15.604;2022-08-02T18:16:58;100767.85;;;27.14;36.31
40794;BME280;26502;51.886;15.604;2022-08-02T18:22:09;100773.11;;;27.01;36.81
40794;BME280;26502;51.886;15.604;2022-08-02T18:27:17;100780.31;;;26.84;36.74
40794;BME280;26502;51.886;15.604;2022-08-02T18:32:25;100781.27;;;26.68;36.95
40794;BME280;26502;51.886;15.604;2022-08-02T18:37:32;100788.70;;;26.60;37.33
40794;BME280;26502;51.886;15.604;2022-08-02T18:42:39;100788.84;;;26.38;37.54
40794;BME280;26502;51.886;15.604;2022-08-02T18:47:47;100790.02;;;26.12;38.10
40794;BME280;26502;51.886;15.604;2022-08-02T18:52:55;100789.21;;;25.82;38.37
40794;BME280;26502;51.886;15.604;2022-08-02T18:58:02;100785.96;;;25.61;38.99
40794;BME280;26502;51.886;15.604;2022-08-02T19:03:08;100794.63;;;25.28;39.57
40794;BME280;26502;51.886;15.604;2022-08-02T19:08:16;100802.45;;;24.86;40.12
40794;BME280;26502;51.886;15.604;2022-08-02T19:13:22;100807.16;;;24.75;40.70
40794;BME280;26502;51.886;15.604;2022-08-02T19:18:30;100810.32;;;24.57;40.93
40794;BME280;26502;51.886;15.604;2022-08-02T19:23:37;100814.82;;;24.45;41.04
40794;BME280;26502;51.886;15.604;2022-08-02T19:28:44;100811.36;;;24.29;41.66
40794;BME280;26502;51.886;15.604;2022-08-02T19:33:51;100814.71;;;24.16;41.92
40794;BME280;26502;51.886;15.604;2022-08-02T19:38:58;100819.34;;;23.96;42.27
40794;BME280;26502;51.886;15.604;2022-08-02T19:44:06;100822.05;;;23.72;42.55
40794;BME280;26502;51.886;15.604;2022-08-02T19:49:13;100820.45;;;23.57;43.04
40794;BME280;26502;51.886;15.604;2022-08-02T19:54:21;100815.55;;;23.55;43.27
40794;BME280;26502;51.886;15.604;2022-08-02T19:59:29;100822.84;;;23.46;43.35
40794;BME280;26502;51.886;15.604;2022-08-02T20:04:36;100827.11;;;23.23;43.84
40794;BME280;26502;51.886;15.604;2022-08-02T20:09:44;100827.05;;;23.10;44.27
40794;BME280;26502;51.886;15.604;2022-08-02T20:14:54;100825.45;;;23.08;44.35
40794;BME280;26502;51.886;15.604;2022-08-02T20:20:02;100827.92;;;22.88;44.35
40794;BME280;26502;51.886;15.604;2022-08-02T20:25:09;100833.42;;;22.65;44.90
40794;BME280;26502;51.886;15.604;2022-08-02T20:30:17;100838.13;;;22.45;45.17
40794;BME280;26502;51.886;15.604;2022-08-02T20:35:24;100834.02;;;22.35;45.37
40794;BME280;26502;51.886;15.604;2022-08-02T20:40:30;100832.00;;;22.33;45.79
40794;BME280;26502;51.886;15.604;2022-08-02T20:45:37;100834.55;;;22.31;46.10
40794;BME280;26502;51.886;15.604;2022-08-02T20:50:46;100836.22;;;22.14;46.15
40794;BME280;26502;51.886;15.604;2022-08-02T20:55:54;100837.91;;;21.99;46.53
40794;BME280;26502;51.886;15.604;2022-08-02T21:01:01;100838.23;;;21.86;46.52
40794;BME280;26502;51.886;15.604;2022-08-02T21:06:09;100836.25;;;21.69;46.87
40794;BME280;26502;51.886;15.604;2022-08-02T21:11:16;100835.22;;;21.59;47.14
40794;BME280;26502;51.886;15.604;2022-08-02T21:16:23;100835.14;;;21.40;47.38
40794;BME280;26502;51.886;15.604;2022-08-02T21:21:30;100836.46;;;21.23;47.59
40794;BME280;26502;51.886;15.604;2022-08-02T21:26:37;100839.58;;;21.17;47.80
40794;BME280;26502;51.886;15.604;2022-08-02T21:31:46;100838.48;;;21.10;47.99
40794;BME280;26502;51.886;15.604;2022-08-02T21:36:51;100838.10;;;20.91;48.49
40794;BME280;26502;51.886;15.604;2022-08-02T21:41:58;100840.39;;;20.84;48.72
40794;BME280;26502;51.886;15.604;2022-08-02T21:47:05;100838.88;;;20.85;48.71
40794;BME280;26502;51.886;15.604;2022-08-02T21:52:13;100843.16;;;20.71;48.94
40794;BME280;26502;51.886;15.604;2022-08-02T21:57:20;100840.75;;;20.59;49.19
40794;BME280;26502;51.886;15.604;2022-08-02T22:02:28;100841.77;;;20.60;49.33
40794;BME280;26502;51.886;15.604;2022-08-02T22:07:35;100845.30;;;20.50;49.40
40794;BME280;26502;51.886;15.604;2022-08-02T22:12:42;100840.58;;;20.36;49.59
40794;BME280;26502;51.886;15.604;2022-08-02T22:17:50;100841.93;;;20.27;49.78
40794;BME280;26502;51.886;15.604;2022-08-02T22:22:57;100844.58;;;20.15;49.99
40794;BME280;26502;51.886;15.604;2022-08-02T22:28:06;100845.08;;;20.02;50.38
40794;BME280;26502;51.886;15.604;2022-08-02T22:33:13;100849.92;;;19.98;50.52
40794;BME280;26502;51.886;15.604;2022-08-02T22:38:37;100851.52;;;19.90;50.77
40794;BME280;26502;51.886;15.604;2022-08-02T22:43:45;100859.51;;;19.84;50.76
40794;BME280;26502;51.886;15.604;2022-08-02T22:48:53;100857.52;;;19.73;50.92
40794;BME280;26502;51.886;15.604;2022-08-02T22:54:01;100856.21;;;19.60;51.11
40794;BME280;26502;51.886;15.604;2022-08-02T22:59:08;100852.98;;;19.57;51.30
40794;BME280;26502;51.886;15.604;2022-08-02T23:04:16;100855.33;;;19.52;51.39
40794;BME280;26502;51.886;15.604;2022-08-02T23:09:23;100853.22;;;19.40;51.63
40794;BME280;26502;51.886;15.604;2022-08-02T23:14:30;100856.45;;;19.35;51.83
40794;BME280;26502;51.886;15.604;2022-08-02T23:19:37;100854.20;;;19.28;51.98
40794;BME280;26502;51.886;15.604;2022-08-02T23:24:59;100848.64;;;19.17;52.11
40794;BME280;26502;51.886;15.604;2022-08-02T23:30:08;100845.68;;;19.04;52.45
40794;BME280;26502;51.886;15.604;2022-08-02T23:35:16;100846.83;;;19.03;52.69
40794;BME280;26502;51.886;15.604;2022-08-02T23:40:23;100847.92;;;19.06;52.80
40794;BME280;26502;51.886;15.604;2022-08-02T23:45:30;100843.48;;;19.08;53.05
40794;BME280;26502;51.886;15.604;2022-08-02T23:50:38;100840.98;;;19.10;53.21
40794;BME280;26502;51.886;15.604;2022-08-02T23:55:45;100841.01;;;19.07;53.23
